Terminal Aerodrome Forecast
Issued by NWS Spokane, WA

Home | Current Version | Previous Version | Text Only | Print | Product List | Glossary On
Versions: 1 2 3 4 5 6 7 8 9 10 11 12 13 14 15 16 17 18 19 20 21 22 23 24 25 26
000
FTUS46 KOTX 170520
TAFEAT
TAF
KEAT 170520Z 1706/1806 31010KT P6SM FEW150 SCT200
     FM170900 31009KT P6SM SCT100 BKN150
     FM172000 13005KT P6SM SCT100 BKN120 OVC150
     FM180200 31005KT P6SM VCSH SCT150 OVC200=

USA.gov is the U.S. government's official web portal to all federal, state and local government web resources and services.